createdAt,value
2023-03-23T00:00:52.349Z,14.18
2023-03-23T00:03:24.687Z,12.75
2023-03-23T00:05:55.704Z,14.50
2023-03-23T00:08:25.969Z,16.88
2023-03-23T00:11:00.214Z,13.98
2023-03-23T00:13:32.492Z,11.90
2023-03-23T00:16:04.048Z,11.27
2023-03-23T00:18:34.735Z,12.00
2023-03-23T00:21:07.303Z,12.68
2023-03-23T00:23:37.618Z,11.43
2023-03-23T00:26:08.099Z,12.27
2023-03-23T00:28:38.502Z,12.27
2023-03-23T00:31:10.859Z,11.77
2023-03-23T00:33:44.060Z,12.70
2023-03-23T00:36:15.654Z,12.30
2023-03-23T00:38:47.713Z,13.77
2023-03-23T00:41:18.786Z,14.00
2023-03-23T00:43:49.031Z,10.30
2023-03-23T00:46:19.715Z,14.32
2023-03-23T00:48:50.824Z,9.00
2023-03-23T00:51:22.954Z,12.77
2023-03-23T00:53:53.640Z,10.82
2023-03-23T00:56:24.049Z,12.45
2023-03-23T00:58:54.120Z,16.85
2023-03-23T01:01:24.563Z,10.25
2023-03-23T01:03:56.640Z,17.23
2023-03-23T01:06:26.833Z,15.75
2023-03-23T01:08:57.310Z,12.93
2023-03-23T01:13:59.475Z,13.35
2023-03-23T01:16:29.880Z,11.27
2023-03-23T01:19:00.325Z,14.60
2023-03-23T01:21:32.594Z,14.38
2023-03-23T01:24:02.965Z,12.60
2023-03-23T01:26:33.756Z,11.90
2023-03-23T01:29:04.213Z,12.60
2023-03-23T01:31:35.070Z,11.73
2023-03-23T01:34:05.700Z,13.60
2023-03-23T01:36:36.417Z,14.02
2023-03-23T01:39:08.944Z,10.95
2023-03-23T01:41:39.612Z,12.65
2023-03-23T01:44:28.056Z,16.13
2023-03-23T01:47:16.721Z,14.57
2023-03-23T01:49:52.826Z,13.38
2023-03-23T01:52:29.209Z,11.70
2023-03-23T01:55:06.926Z,13.55
2023-03-23T01:57:38.024Z,15.13
2023-03-23T02:00:18.250Z,15.00
2023-03-23T02:02:56.489Z,15.32
2023-03-23T02:05:41.447Z,14.43
2023-03-23T02:08:21.780Z,13.75
2023-03-23T02:10:52.775Z,11.80
2023-03-23T02:13:24.000Z,13.80
2023-03-23T02:18:57.413Z,15.40
2023-03-23T02:21:28.259Z,16.73
2023-03-23T02:24:36.901Z,12.60
2023-03-23T02:27:07.476Z,15.95
2023-03-23T02:29:49.364Z,15.17
2023-03-23T02:32:42.947Z,16.85
2023-03-23T02:35:36.885Z,13.50
2023-03-23T02:38:21.717Z,17.55
2023-03-23T02:40:54.237Z,13.65
2023-03-23T02:43:28.183Z,13.48
2023-03-23T02:46:10.425Z,15.38
2023-03-23T02:48:43.434Z,13.35
2023-03-23T02:54:02.958Z,16.75
2023-03-23T02:57:40.413Z,16.40
2023-03-23T03:01:24.830Z,16.10
2023-03-23T03:04:20.675Z,16.63
2023-03-23T03:07:06.008Z,13.32
2023-03-23T03:10:03.476Z,15.63
2023-03-23T03:12:48.761Z,15.07
2023-03-23T03:15:31.770Z,15.70
2023-03-23T03:18:31.677Z,19.48
2023-03-23T03:21:23.639Z,15.88
2023-03-23T03:24:14.809Z,15.77
2023-03-23T03:26:50.849Z,15.32
2023-03-23T03:32:34.421Z,15.75
2023-03-23T03:35:07.118Z,16.38
2023-03-23T03:37:40.661Z,17.10
2023-03-23T03:40:15.484Z,16.27
2023-03-23T03:43:05.004Z,15.93
2023-03-23T03:45:53.929Z,18.65
2023-03-23T03:51:10.221Z,17.63
2023-03-23T03:53:44.837Z,17.00
2023-03-23T03:56:35.660Z,16.23
2023-03-23T03:59:24.280Z,18.15
2023-03-23T04:02:16.991Z,15.70
2023-03-23T04:05:06.883Z,15.77
2023-03-23T04:10:32.637Z,17.27
2023-03-23T04:13:22.170Z,16.70
2023-03-23T04:16:14.011Z,17.40
2023-03-23T04:21:52.382Z,16.90
2023-03-23T04:24:56.341Z,17.67
2023-03-23T04:27:21.002Z,20.08
2023-03-23T04:29:53.088Z,16.92
2023-03-23T04:32:46.676Z,18.25
2023-03-23T04:35:35.350Z,15.10
2023-03-23T04:38:23.666Z,17.48
2023-03-23T04:41:12.231Z,17.67
2023-03-23T04:43:49.242Z,17.90
2023-03-23T04:46:42.645Z,17.98
2023-03-23T04:49:17.631Z,18.02
2023-03-23T04:52:09.730Z,20.00
2023-03-23T04:54:47.986Z,17.50
2023-03-23T04:57:19.332Z,18.08
2023-03-23T05:00:16.277Z,17.67
2023-03-23T05:03:04.944Z,19.60
2023-03-23T05:05:38.173Z,17.40
2023-03-23T05:08:30.243Z,17.38
2023-03-23T05:11:18.907Z,17.33
2023-03-23T05:13:49.529Z,16.98
2023-03-23T05:16:39.961Z,16.85
2023-03-23T05:19:17.387Z,17.40
2023-03-23T05:21:49.268Z,17.58
2023-03-23T05:24:21.073Z,17.57
2023-03-23T05:27:11.353Z,20.80
2023-03-23T05:29:46.835Z,17.30
2023-03-23T05:32:17.885Z,17.77
2023-03-23T05:34:49.878Z,17.75
2023-03-23T05:39:56.826Z,16.67
2023-03-23T05:42:48.936Z,18.55
2023-03-23T05:45:38.367Z,20.20
2023-03-23T05:48:09.391Z,22.92
2023-03-23T05:50:39.778Z,19.80
2023-03-23T05:53:11.345Z,17.33
2023-03-23T05:55:43.919Z,18.83
2023-03-23T05:58:25.408Z,18.70
2023-03-23T06:00:57.078Z,18.55
2023-03-23T06:03:31.826Z,18.90
2023-03-23T06:06:08.668Z,19.80
2023-03-23T06:08:53.628Z,17.52
2023-03-23T06:11:37.496Z,18.08
2023-03-23T06:14:27.249Z,17.87
2023-03-23T06:16:58.647Z,20.17
2023-03-23T06:19:30.302Z,19.33
2023-03-23T06:22:18.893Z,17.23
2023-03-23T06:25:10.627Z,19.77
2023-03-23T06:27:44.638Z,18.30
2023-03-23T06:30:18.587Z,18.98
2023-03-23T06:32:51.219Z,21.40
2023-03-23T06:35:32.286Z,18.30
2023-03-23T06:38:20.705Z,21.33
2023-03-23T06:40:58.898Z,19.48
2023-03-23T06:58:22.898Z,19.10
2023-03-23T07:01:00.147Z,18.90
2023-03-23T07:09:18.696Z,19.52
2023-03-23T07:11:50.918Z,19.30
2023-03-23T07:17:16.414Z,19.23
2023-03-23T07:20:08.581Z,20.30
2023-03-23T07:22:39.239Z,19.92
2023-03-23T07:28:17.466Z,18.73
2023-03-23T07:31:05.933Z,18.13
2023-03-23T07:33:36.719Z,19.73
2023-03-23T07:36:25.441Z,20.40
2023-03-23T07:39:13.949Z,21.20
2023-03-23T07:42:02.497Z,18.48
2023-03-23T07:44:45.721Z,18.58
2023-03-23T07:47:17.423Z,20.25
2023-03-23T07:49:51.002Z,19.60
2023-03-23T07:52:40.160Z,20.20
2023-03-23T07:55:20.644Z,19.10
2023-03-23T07:58:04.493Z,18.58
2023-03-23T08:00:36.316Z,20.27
2023-03-23T08:03:25.070Z,22.13
2023-03-23T08:06:13.711Z,19.52
2023-03-23T08:09:03.747Z,19.05
2023-03-23T08:11:52.488Z,21.52
2023-03-23T08:14:55.898Z,20.92
2023-03-23T08:20:45.327Z,20.95
2023-03-23T08:23:36.098Z,19.73
2023-03-23T08:26:25.591Z,20.05
2023-03-23T08:29:14.650Z,19.42
2023-03-23T08:32:03.018Z,20.77
2023-03-23T08:34:59.566Z,20.10
2023-03-23T08:37:48.988Z,20.45
2023-03-23T08:40:40.253Z,19.98
2023-03-23T08:43:36.407Z,22.17
2023-03-23T08:49:19.527Z,21.50
2023-03-23T08:52:06.956Z,20.35
2023-03-23T08:54:54.955Z,21.13
2023-03-23T08:57:50.573Z,21.67
2023-03-23T09:00:34.052Z,25.50
2023-03-23T09:03:22.963Z,21.13
2023-03-23T09:06:14.529Z,22.13
2023-03-23T09:08:48.966Z,22.33
2023-03-23T09:11:19.534Z,21.37
2023-03-23T09:14:09.349Z,21.83
2023-03-23T09:16:39.668Z,23.27
2023-03-23T09:19:12.369Z,21.67
2023-03-23T09:22:00.752Z,22.97
2023-03-23T09:24:31.321Z,22.70
2023-03-23T09:27:02.163Z,24.30
2023-03-23T09:29:32.528Z,22.27
2023-03-23T09:32:03.470Z,23.50
2023-03-23T09:37:20.270Z,25.25
2023-03-23T09:40:14.632Z,25.08
2023-03-23T09:43:02.784Z,25.65
2023-03-23T09:45:43.338Z,26.48
2023-03-23T09:48:37.229Z,24.10
2023-03-23T09:54:38.254Z,25.58
2023-03-23T09:57:18.359Z,24.65
2023-03-23T10:00:27.651Z,24.23
2023-03-23T10:03:29.688Z,26.08
2023-03-23T10:06:00.150Z,24.70
2023-03-23T10:08:58.684Z,26.75
2023-03-23T10:11:44.166Z,25.43
2023-03-23T10:14:32.290Z,26.13
2023-03-23T10:20:40.979Z,24.13
2023-03-23T10:23:56.861Z,24.83
2023-03-23T10:27:00.418Z,24.23
2023-03-23T10:29:35.775Z,25.02
2023-03-23T10:35:37.870Z,23.52
2023-03-23T10:38:28.158Z,23.58
2023-03-23T10:41:22.491Z,22.38
2023-03-23T10:43:53.210Z,23.40
2023-03-23T10:46:48.134Z,23.73
2023-03-23T10:49:27.376Z,25.27
2023-03-23T10:55:21.119Z,26.20
2023-03-23T10:58:07.454Z,25.05
2023-03-23T11:00:50.830Z,24.95
2023-03-23T11:03:29.788Z,25.92
2023-03-23T11:06:03.288Z,22.80
2023-03-23T11:08:38.017Z,24.45
2023-03-23T11:11:13.556Z,23.23
2023-03-23T11:13:47.836Z,22.80
2023-03-23T11:16:38.938Z,23.88
2023-03-23T11:19:25.869Z,23.73
2023-03-23T11:22:26.986Z,26.02
2023-03-23T11:27:49.620Z,23.45
2023-03-23T11:30:30.808Z,23.13
2023-03-23T11:33:06.365Z,22.55
2023-03-23T11:35:36.857Z,23.17
2023-03-23T11:38:09.724Z,25.60
2023-03-23T11:41:00.547Z,23.13
2023-03-23T11:43:30.946Z,21.95
2023-03-23T11:46:48.198Z,23.13
2023-03-23T11:55:35.651Z,22.48
2023-03-23T11:58:15.758Z,22.15
2023-03-23T12:00:51.965Z,24.52
2023-03-23T12:03:50.032Z,22.13
2023-03-23T12:06:34.728Z,24.08
2023-03-23T12:09:50.369Z,21.00
2023-03-23T12:12:34.189Z,24.33
2023-03-23T12:15:29.895Z,23.65
2023-03-23T12:18:20.338Z,22.98
2023-03-23T12:20:56.627Z,21.60
2023-03-23T12:23:34.233Z,22.00
2023-03-23T12:26:49.783Z,23.02
2023-03-23T12:29:35.347Z,24.20
2023-03-23T12:32:36.957Z,21.40
2023-03-23T12:35:29.800Z,21.02
2023-03-23T12:38:45.717Z,20.73
2023-03-23T12:41:22.311Z,22.98
2023-03-23T12:44:02.520Z,23.77
2023-03-23T12:46:45.888Z,24.42
2023-03-23T12:49:25.983Z,25.08
2023-03-23T12:52:39.315Z,24.33
2023-03-23T12:55:40.845Z,23.60
2023-03-23T12:58:20.358Z,24.52
2023-03-23T13:01:06.397Z,23.30
2023-03-23T13:04:11.591Z,23.20
2023-03-23T13:06:50.488Z,19.98
2023-03-23T13:09:52.137Z,23.70
2023-03-23T13:12:24.243Z,19.92
2023-03-23T13:15:28.023Z,19.92
2023-03-23T13:18:12.789Z,20.15
2023-03-23T13:21:15.055Z,20.00
2023-03-23T13:23:57.146Z,22.75
2023-03-23T13:26:28.423Z,19.70
2023-03-23T13:29:21.851Z,22.55
2023-03-23T13:31:53.504Z,21.13
2023-03-23T13:34:28.675Z,19.40
2023-03-23T13:37:08.168Z,19.60
2023-03-23T13:39:52.461Z,17.27
2023-03-23T13:42:26.225Z,18.65
2023-03-23T13:44:56.626Z,18.50
2023-03-23T13:47:27.233Z,22.35
2023-03-23T13:50:00.533Z,19.80
2023-03-23T13:55:46.597Z,20.73
2023-03-23T13:58:27.364Z,18.27
2023-03-23T14:01:19.775Z,19.48
2023-03-23T14:03:56.146Z,19.63
2023-03-23T14:06:30.306Z,16.70
2023-03-23T14:09:40.283Z,19.20
2023-03-23T14:12:23.329Z,20.35
2023-03-23T14:15:33.375Z,21.38
2023-03-23T14:18:07.610Z,19.33
2023-03-23T14:20:43.406Z,19.73
2023-03-23T14:23:21.494Z,18.92
2023-03-23T14:26:21.655Z,18.85
2023-03-23T14:28:57.020Z,17.10
2023-03-23T14:31:30.444Z,19.20
2023-03-23T14:34:32.709Z,17.10
2023-03-23T14:37:21.446Z,15.63
2023-03-23T14:40:15.774Z,18.65
2023-03-23T14:42:46.420Z,16.55
2023-03-23T14:45:20.464Z,25.30
2023-03-23T14:47:58.081Z,16.27
2023-03-23T14:50:57.962Z,19.17
2023-03-23T14:53:46.856Z,16.65
2023-03-23T14:56:20.103Z,17.67
2023-03-23T14:58:52.191Z,18.00
2023-03-23T15:04:23.586Z,14.93
2023-03-23T15:07:13.594Z,17.50
2023-03-23T15:09:47.465Z,17.33
2023-03-23T15:12:29.882Z,16.48
2023-03-23T15:15:04.982Z,14.02
2023-03-23T15:20:47.414Z,13.27
2023-03-23T15:23:36.673Z,15.05
2023-03-23T15:26:28.623Z,16.85
2023-03-23T15:29:26.924Z,17.15
2023-03-23T15:31:59.006Z,15.70
2023-03-23T15:34:44.250Z,16.45
2023-03-23T15:37:35.305Z,16.90
2023-03-23T15:40:26.963Z,14.68
2023-03-23T15:43:39.845Z,17.33
2023-03-23T15:46:14.067Z,13.98
2023-03-23T15:48:51.865Z,16.75
2023-03-23T15:54:27.193Z,17.30
2023-03-23T15:57:15.746Z,12.30
2023-03-23T15:59:46.086Z,12.57
2023-03-23T16:02:25.126Z,13.45
2023-03-23T16:05:15.932Z,16.20
2023-03-23T16:07:46.304Z,12.10
2023-03-23T16:10:24.949Z,11.88
2023-03-23T16:12:55.475Z,12.20
2023-03-23T16:15:25.833Z,13.50
2023-03-23T16:17:56.212Z,13.27
2023-03-23T16:20:27.746Z,14.60
2023-03-23T16:22:58.308Z,14.32
2023-03-23T16:25:28.819Z,14.48
2023-03-23T16:28:18.509Z,14.13
2023-03-23T16:30:49.370Z,12.23
2023-03-23T16:33:19.814Z,16.75
2023-03-23T16:35:50.458Z,12.63
2023-03-23T16:38:21.378Z,13.10
2023-03-23T16:40:52.009Z,13.43
2023-03-23T16:43:23.522Z,15.20
2023-03-23T16:45:58.998Z,17.60
2023-03-23T16:51:15.054Z,13.77
2023-03-23T16:53:45.566Z,13.33
2023-03-23T16:56:36.943Z,12.85
2023-03-23T16:59:07.842Z,12.93
2023-03-23T17:01:38.459Z,14.25
2023-03-23T17:04:09.371Z,11.47
2023-03-23T17:06:59.808Z,16.45
2023-03-23T17:09:51.487Z,16.73
2023-03-23T17:12:22.550Z,13.20
2023-03-23T17:14:52.968Z,12.02
2023-03-23T17:17:23.354Z,11.52
2023-03-23T17:19:54.365Z,13.48
2023-03-23T17:22:25.404Z,15.48
2023-03-23T17:24:59.323Z,11.52
2023-03-23T17:27:30.113Z,14.73
2023-03-23T17:30:00.618Z,12.82
2023-03-23T17:32:34.284Z,13.17
2023-03-23T17:35:04.905Z,14.88
2023-03-23T17:37:39.366Z,15.38
2023-03-23T17:40:12.708Z,13.75
2023-03-23T17:45:31.724Z,13.27
2023-03-23T17:48:02.077Z,13.52
2023-03-23T17:50:51.994Z,11.40
2023-03-23T17:56:26.386Z,12.68
2023-03-23T17:58:56.864Z,13.70
2023-03-23T18:01:27.749Z,13.40
2023-03-23T18:03:58.172Z,15.57
2023-03-23T18:06:28.742Z,12.20
2023-03-23T18:08:59.050Z,13.35
2023-03-23T18:11:30.287Z,14.30
2023-03-23T18:14:18.804Z,12.43
2023-03-23T18:16:49.721Z,13.60
2023-03-23T18:19:20.065Z,17.23
2023-03-23T18:21:50.336Z,14.45
2023-03-23T18:24:20.488Z,14.48
2023-03-23T18:26:50.923Z,13.63
2023-03-23T18:29:21.339Z,15.17
2023-03-23T18:31:51.610Z,14.02
2023-03-23T18:34:21.939Z,14.13
2023-03-23T18:36:52.211Z,14.13
2023-03-23T18:39:22.530Z,14.95
2023-03-23T18:41:52.900Z,14.15
2023-03-23T18:44:24.966Z,16.13
2023-03-23T18:46:55.368Z,12.85
2023-03-23T18:49:26.192Z,14.80
2023-03-23T18:52:14.423Z,14.00
2023-03-23T18:54:47.600Z,16.55
2023-03-23T18:57:20.411Z,14.95
2023-03-23T18:59:50.839Z,14.55
2023-03-23T19:02:22.626Z,15.07
2023-03-23T19:04:53.634Z,14.07
2023-03-23T19:07:24.065Z,14.00
2023-03-23T19:09:54.230Z,13.88
2023-03-23T19:12:25.559Z,13.50
2023-03-23T19:15:13.919Z,16.08
2023-03-23T19:17:44.554Z,15.65
2023-03-23T19:20:26.938Z,17.30
2023-03-23T19:23:06.727Z,15.68
2023-03-23T19:25:37.155Z,13.80
2023-03-23T19:30:45.873Z,16.05
2023-03-23T19:33:17.093Z,14.32
2023-03-23T19:36:12.254Z,16.85
2023-03-23T19:38:43.767Z,15.65
2023-03-23T19:41:14.134Z,15.73
2023-03-23T19:43:45.759Z,19.15
2023-03-23T19:46:16.813Z,15.93
2023-03-23T19:48:47.151Z,15.10
2023-03-23T19:51:20.941Z,14.70
2023-03-23T19:54:10.315Z,15.25
2023-03-23T19:56:40.804Z,18.98
2023-03-23T19:59:13.930Z,16.03
2023-03-23T20:01:45.020Z,15.55
2023-03-23T20:07:02.793Z,16.50
2023-03-23T20:09:51.902Z,16.60
2023-03-23T20:12:22.338Z,15.30
2023-03-23T20:14:53.140Z,15.80
2023-03-23T20:17:23.427Z,16.80
2023-03-23T20:19:54.007Z,16.17
2023-03-23T20:23:02.224Z,14.68
2023-03-23T20:25:51.350Z,18.13
2023-03-23T20:31:18.888Z,17.95
2023-03-23T20:33:42.392Z,19.98
2023-03-23T20:36:13.493Z,18.63
2023-03-23T20:38:45.080Z,17.92
2023-03-23T20:44:22.124Z,17.75
2023-03-23T20:46:54.062Z,16.15
2023-03-23T20:49:25.371Z,17.10
2023-03-23T20:54:27.581Z,17.77
2023-03-23T20:57:00.924Z,16.87
2023-03-23T20:59:31.537Z,19.73
2023-03-23T21:02:04.630Z,17.13
2023-03-23T21:07:20.626Z,15.40
2023-03-23T21:10:09.672Z,17.88
2023-03-23T21:12:40.468Z,16.52
2023-03-23T21:15:10.937Z,16.13
2023-03-23T21:17:41.026Z,18.25
2023-03-23T21:20:13.442Z,17.03
2023-03-23T21:23:03.853Z,18.48
2023-03-23T21:25:37.015Z,15.90
2023-03-23T21:28:09.480Z,17.30
2023-03-23T21:30:39.858Z,16.10
2023-03-23T21:33:11.310Z,18.33
2023-03-23T21:35:42.196Z,15.52
2023-03-23T21:38:16.735Z,16.98
2023-03-23T21:40:47.315Z,17.73
2023-03-23T21:43:19.165Z,16.38
2023-03-23T21:45:50.534Z,16.60
2023-03-23T21:48:20.818Z,17.80
2023-03-23T21:50:52.819Z,17.33
2023-03-23T21:53:25.233Z,15.80
2023-03-23T21:56:14.563Z,15.75
2023-03-23T21:59:04.082Z,15.90
2023-03-23T22:01:34.238Z,17.30
2023-03-23T22:04:04.412Z,15.73
2023-03-23T22:06:36.741Z,15.13
2023-03-23T22:09:12.041Z,15.75
2023-03-23T22:11:43.362Z,17.35
2023-03-23T22:14:14.949Z,15.02
2023-03-23T22:16:45.579Z,16.85
2023-03-23T22:19:16.085Z,14.23
2023-03-23T22:21:46.714Z,19.27
2023-03-23T22:24:17.140Z,22.77
2023-03-23T22:26:47.791Z,15.98
2023-03-23T22:29:19.442Z,21.33
2023-03-23T22:31:50.097Z,16.13
2023-03-23T22:34:21.050Z,15.73
2023-03-23T22:36:51.560Z,20.58
2023-03-23T22:39:21.991Z,19.03
2023-03-23T22:41:52.725Z,17.20
2023-03-23T22:44:23.130Z,18.35
2023-03-23T22:46:54.687Z,15.98
2023-03-23T22:49:25.191Z,17.60
2023-03-23T22:51:55.976Z,14.93
2023-03-23T22:54:26.377Z,18.30
2023-03-23T22:56:57.947Z,16.88
2023-03-23T22:59:29.610Z,18.70
2023-03-23T23:04:08.906Z,33.42
2023-03-23T23:06:39.538Z,31.10
2023-03-23T23:09:10.379Z,26.47
2023-03-23T23:11:41.171Z,37.72
2023-03-23T23:14:11.436Z,30.95
2023-03-23T23:16:42.214Z,36.47
2023-03-23T23:19:12.342Z,25.17
2023-03-23T23:21:43.541Z,28.60
2023-03-23T23:24:13.916Z,25.80
2023-03-23T23:26:44.248Z,31.47
2023-03-23T23:29:14.802Z,21.02
2023-03-23T23:31:45.507Z,26.30
2023-03-23T23:34:16.726Z,27.88
2023-03-23T23:39:18.639Z,23.95
2023-03-23T23:41:50.004Z,26.42
2023-03-23T23:44:20.429Z,22.63
2023-03-23T23:46:50.727Z,24.15
2023-03-23T23:49:25.302Z,23.40
2023-03-23T23:51:55.691Z,22.65
2023-03-23T23:54:31.983Z,19.43
2023-03-23T23:57:03.772Z,24.92
2023-03-23T23:59:34.190Z,24.75
